Time;durP1;ratioP1;P1;durP2;ratioP2;P2;SDS_P1;SDS_P2;PMS_P1;PMS_P2;Temp;Humidity;BMP_temperature;BMP_pressure;BME280_temperature;BME280_humidity;BME280_pressure;Samples;Min_cycle;Max_cycle;Signal;HPM_P1;HPM_P2
2022/08/03 00:00:53;;;;;;;12.20;10.90;;;;;;;21.34;60.89;99256.94;238340;1192;141358;-59
2022/08/03 00:05:57;;;;;;;13.60;12.20;;;;;;;21.31;61.00;99257.45;238311;1192;142153;-62
2022/08/03 00:11:06;;;;;;;13.80;11.50;;;;;;;21.24;60.95;99258.98;238222;1192;139981;-62
2022/08/03 00:16:10;;;;;;;14.70;12.30;;;;;;;21.20;61.01;99263.75;238319;1192;140139;-58
2022/08/03 00:21:13;;;;;;;15.70;11.60;;;;;;;21.19;61.19;99264.95;238322;1192;139419;-59
2022/08/03 00:26:17;;;;;;;12.50;11.30;;;;;;;21.16;61.14;99262.91;238421;1192;139537;-58
2022/08/03 00:31:20;;;;;;;11.70;10.50;;;;;;;21.09;61.28;99260.52;238497;1192;139390;-59
2022/08/03 00:36:43;;;;;;;13.20;11.30;;;;;;;21.04;61.33;99263.73;238284;1192;140137;-58
2022/08/03 00:41:46;;;;;;;14.40;11.60;;;;;;;21.02;61.43;99263.55;238296;1192;139396;-59
2022/08/03 00:46:48;;;;;;;12.80;10.90;;;;;;;20.99;61.50;99265.48;238374;1192;139470;-60
2022/08/03 00:51:51;;;;;;;13.30;12.00;;;;;;;20.96;61.59;99272.66;238375;1191;140239;-59
2022/08/03 00:56:55;;;;;;;12.80;11.50;;;;;;;20.92;61.59;99276.88;238364;1192;141272;-62
2022/08/03 01:02:02;;;;;;;13.90;12.00;;;;;;;20.84;61.74;99280.96;238472;1192;139732;-61
2022/08/03 01:07:20;;;;;;;12.50;11.20;;;;;;;20.77;61.75;99276.91;238367;1192;139411;-62
2022/08/03 01:12:31;;;;;;;15.60;10.40;;;;;;;20.72;61.85;99275.45;238281;1192;140762;-59
2022/08/03 01:17:42;;;;;;;13.90;11.80;;;;;;;20.70;62.01;99268.26;238353;1192;140828;-57
2022/08/03 01:23:02;;;;;;;15.20;12.80;;;;;;;20.69;62.12;99271.70;238281;1192;139427;-60
2022/08/03 01:28:14;;;;;;;13.60;12.10;;;;;;;20.63;62.18;99269.88;238275;1191;139682;-58
2022/08/03 01:33:21;;;;;;;13.10;11.50;;;;;;;20.60;62.29;99272.87;238271;1192;139980;-59
2022/08/03 01:38:30;;;;;;;17.00;11.70;;;;;;;20.54;62.34;99275.44;238285;1192;139397;-59
2022/08/03 01:43:35;;;;;;;12.60;11.30;;;;;;;20.51;62.32;99276.62;238373;1192;141058;-60
2022/08/03 01:49:00;;;;;;;17.60;13.50;;;;;;;20.52;62.48;99274.44;238418;1192;139396;-62
2022/08/03 01:54:12;;;;;;;16.20;13.80;;;;;;;20.53;62.74;99265.48;238362;1192;139963;-61
2022/08/03 01:59:17;;;;;;;15.00;13.30;;;;;;;20.52;62.65;99267.54;238357;1192;140192;-58
2022/08/03 02:04:21;;;;;;;;;;;;;;;20.51;62.85;99259.35;238439;1192;139591;-58
2022/08/03 02:09:27;;;;;;;14.30;12.80;;;;;;;20.48;62.83;99258.34;238379;1192;126057;-59
2022/08/03 02:14:30;;;;;;;14.10;11.10;;;;;;;20.46;62.84;99262.17;238430;1192;139320;-60
2022/08/03 02:19:34;;;;;;;13.60;12.10;;;;;;;20.41;62.58;99260.73;238501;1192;140568;-59
2022/08/03 02:24:37;;;;;;;15.30;13.00;;;;;;;20.37;62.73;99262.52;238403;1192;139540;-57
2022/08/03 02:29:44;;;;;;;14.40;12.10;;;;;;;20.37;62.90;99258.55;238280;1192;139411;-59
2022/08/03 02:34:50;;;;;;;14.40;12.20;;;;;;;20.37;63.01;99257.70;238305;1192;139290;-59
2022/08/03 02:39:59;;;;;;;16.30;13.20;;;;;;;20.36;63.01;99258.34;238340;1192;139363;-59
2022/08/03 02:45:07;;;;;;;14.00;11.50;;;;;;;20.32;62.97;99261.02;238291;1192;139193;-59
2022/08/03 02:50:14;;;;;;;14.00;12.20;;;;;;;20.33;62.94;99255.36;238299;1192;140746;-56
2022/08/03 02:55:19;;;;;;;14.50;12.00;;;;;;;20.35;63.02;99255.90;238576;1192;139992;-56
2022/08/03 03:00:23;;;;;;;13.40;11.90;;;;;;;20.36;62.97;99256.39;238290;1192;139208;-58
2022/08/03 03:05:30;;;;;;;12.90;11.30;;;;;;;20.33;62.98;99260.02;238368;1192;139511;-59
2022/08/03 03:10:55;;;;;;;12.10;10.90;;;;;;;20.28;62.85;99266.16;238308;1192;139392;-58
2022/08/03 03:16:01;;;;;;;13.50;10.60;;;;;;;20.16;62.53;99270.52;238374;1192;140709;-58
2022/08/03 03:21:07;;;;;;;291.50;227.70;;;;;;;20.05;62.68;99267.48;238202;1192;139522;-58
2022/08/03 03:26:12;;;;;;;;;;;;;;;20.09;62.59;99265.84;238317;1192;140278;-59
2022/08/03 03:31:15;;;;;;;85.20;71.00;;;;;;;20.10;62.74;99263.92;238495;1192;127985;-61
2022/08/03 03:36:18;;;;;;;104.20;89.70;;;;;;;20.16;62.70;99264.29;238320;1192;139323;-60
2022/08/03 03:41:21;;;;;;;15.40;12.90;;;;;;;20.23;63.15;99263.20;238257;1192;139650;-57
2022/08/03 03:46:24;;;;;;;26.10;22.70;;;;;;;20.26;62.92;99270.80;238398;1192;139984;-57
2022/08/03 03:51:27;;;;;;;35.50;27.50;;;;;;;20.26;63.04;99277.30;238344;1192;141120;-57
2022/08/03 03:56:30;;;;;;;18.70;11.70;;;;;;;20.32;62.86;99279.56;238381;1192;140632;-58
2022/08/03 04:01:33;;;;;;;12.90;10.90;;;;;;;20.42;62.96;99282.61;238408;1192;140579;-58
2022/08/03 04:12:00;;;;;;;14.10;11.10;;;;;;;20.51;62.65;99290.34;238343;1192;139497;-56
2022/08/03 04:17:08;;;;;;;111.50;90.90;;;;;;;20.51;62.44;99294.69;238279;1192;139444;-55
2022/08/03 04:22:14;;;;;;;20.50;16.00;;;;;;;20.45;62.18;99296.20;238337;1192;139974;-58
2022/08/03 04:27:22;;;;;;;14.70;10.30;;;;;;;20.28;61.86;99299.95;238272;1192;139229;-58
2022/08/03 04:32:27;;;;;;;15.20;10.70;;;;;;;20.19;62.21;99303.08;238301;1192;140785;-57
2022/08/03 04:37:46;;;;;;;14.40;11.10;;;;;;;20.18;62.71;99314.49;238436;1192;140103;-58
2022/08/03 04:42:51;;;;;;;16.50;10.60;;;;;;;20.22;62.92;99316.64;238315;1192;139350;-59
2022/08/03 04:47:55;;;;;;;21.40;14.30;;;;;;;20.24;63.04;99321.25;238328;1192;139587;-58
2022/08/03 04:52:58;;;;;;;15.80;13.00;;;;;;;20.30;63.34;99326.64;238132;1192;139382;-60
2022/08/03 04:58:03;;;;;;;13.90;10.90;;;;;;;20.36;63.50;99330.77;238123;1192;139347;-59
2022/08/03 05:03:06;;;;;;;13.80;12.30;;;;;;;20.45;63.51;99328.42;238210;1192;139953;-59
2022/08/03 05:08:26;;;;;;;14.50;12.60;;;;;;;20.55;63.66;99324.76;238151;1192;140665;-58
2022/08/03 05:13:30;;;;;;;18.80;13.00;;;;;;;20.64;63.72;99323.87;238292;1192;139214;-56
2022/08/03 05:18:34;;;;;;;18.10;13.10;;;;;;;20.77;63.80;99323.16;238225;1192;139564;-56
2022/08/03 05:23:37;;;;;;;17.90;13.30;;;;;;;20.86;63.84;99324.89;238270;1192;139822;-57
2022/08/03 05:28:40;;;;;;;16.70;13.60;;;;;;;20.95;63.86;99322.71;238341;1192;139583;-57
2022/08/03 05:33:53;;;;;;;15.30;13.10;;;;;;;21.04;63.76;99323.79;238262;1192;139679;-58
2022/08/03 05:38:56;;;;;;;18.10;12.70;;;;;;;21.17;63.80;99321.20;238248;1192;141774;-59
2022/08/03 05:44:05;;;;;;;18.40;13.40;;;;;;;21.32;64.00;99320.24;238323;1192;139604;-59
2022/08/03 05:49:08;;;;;;;19.60;14.90;;;;;;;21.48;64.02;99323.30;238166;1192;139638;-60
2022/08/03 05:54:11;;;;;;;19.40;13.70;;;;;;;21.64;63.84;99323.55;238178;1192;139090;-59
2022/08/03 05:59:14;;;;;;;20.30;13.80;;;;;;;21.81;63.87;99322.84;238318;1192;140117;-57
2022/08/03 06:04:36;;;;;;;18.60;14.90;;;;;;;21.92;63.76;99322.70;238254;1192;139630;-58
2022/08/03 06:09:40;;;;;;;20.00;13.60;;;;;;;22.02;63.69;99326.21;238231;1192;139822;-59
2022/08/03 06:15:03;;;;;;;18.40;13.10;;;;;;;22.15;63.43;99330.86;238133;1192;140484;-59
2022/08/03 06:20:10;;;;;;;19.30;14.40;;;;;;;22.28;63.60;99331.80;238289;1192;140117;-58
2022/08/03 06:25:13;;;;;;;18.20;14.50;;;;;;;22.45;63.61;99334.04;238449;1192;139459;-59
2022/08/03 06:30:17;;;;;;;18.70;14.50;;;;;;;22.52;63.14;99331.85;238295;1192;139538;-60
2022/08/03 06:35:23;;;;;;;22.80;14.90;;;;;;;22.56;62.98;99327.39;238357;1192;139625;-56
2022/08/03 06:40:30;;;;;;;20.00;14.20;;;;;;;22.62;62.97;99329.09;238251;1192;139386;-60
2022/08/03 06:45:34;;;;;;;15.60;12.60;;;;;;;22.69;62.90;99335.42;238262;1192;139643;-59
2022/08/03 06:50:41;;;;;;;17.50;12.10;;;;;;;22.79;62.93;99331.52;238367;1192;140518;-59
2022/08/03 06:55:44;;;;;;;19.50;12.60;;;;;;;22.94;62.96;99333.39;238350;1192;140947;-58
2022/08/03 07:00:47;;;;;;;16.50;13.10;;;;;;;23.05;62.70;99334.17;238307;1192;139838;-58
2022/08/03 07:05:50;;;;;;;14.30;12.50;;;;;;;23.17;62.68;99330.75;237997;1192;139148;-60
2022/08/03 07:10:53;;;;;;;15.60;12.80;;;;;;;23.25;62.45;99336.02;238322;1192;139693;-59
2022/08/03 07:15:56;;;;;;;16.70;12.00;;;;;;;23.32;62.34;99336.13;238086;1193;139724;-59
2022/08/03 07:20:59;;;;;;;14.10;11.50;;;;;;;23.34;62.18;99336.42;238399;1192;139547;-56
2022/08/03 07:26:02;;;;;;;14.00;11.30;;;;;;;23.36;62.14;99337.65;238478;1192;139867;-59
2022/08/03 07:31:05;;;;;;;12.50;10.90;;;;;;;23.41;62.07;99341.83;238212;1192;139710;-59
2022/08/03 07:36:08;;;;;;;14.30;12.10;;;;;;;23.49;62.01;99340.36;238304;1192;139641;-59
2022/08/03 07:41:11;;;;;;;14.60;11.30;;;;;;;23.58;62.04;99340.87;238390;1191;238559;-58
2022/08/03 07:46:14;;;;;;;14.00;11.40;;;;;;;23.67;61.85;99342.70;238264;1192;139803;-58
2022/08/03 07:51:17;;;;;;;16.50;12.10;;;;;;;23.76;61.80;99339.00;238360;1193;152223;-58
2022/08/03 07:56:20;;;;;;;14.30;11.30;;;;;;;23.85;61.71;99337.13;238346;1192;140354;-59
2022/08/03 08:01:23;;;;;;;17.10;11.20;;;;;;;23.94;61.56;99334.83;238439;1192;140264;-61
2022/08/03 08:06:26;;;;;;;11.80;10.10;;;;;;;24.05;61.47;99329.60;238306;1192;140095;-58
2022/08/03 08:11:29;;;;;;;11.90;10.00;;;;;;;24.17;61.38;99330.42;238319;1192;139771;-56
2022/08/03 08:16:31;;;;;;;24.90;22.30;;;;;;;24.30;61.14;99333.45;238270;1192;139484;-58
2022/08/03 08:21:34;;;;;;;14.10;11.00;;;;;;;24.37;60.79;99335.06;238229;1192;139407;-59
2022/08/03 08:26:57;;;;;;;12.80;10.70;;;;;;;24.39;60.44;99334.42;238251;1192;139852;-58
2022/08/03 08:32:00;;;;;;;11.80;10.60;;;;;;;24.46;60.42;99333.48;238390;1193;139234;-59
2022/08/03 08:37:03;;;;;;;11.60;10.40;;;;;;;24.57;60.35;99333.68;238129;1192;139452;-58
2022/08/03 08:42:06;;;;;;;11.70;9.70;;;;;;;24.66;60.16;99333.32;238248;1192;139545;-58
2022/08/03 08:47:10;;;;;;;12.10;10.60;;;;;;;24.83;60.16;99337.88;238141;1192;139518;-59
2022/08/03 08:52:14;;;;;;;11.70;10.30;;;;;;;25.02;59.90;99334.84;238062;1193;139967;-59
2022/08/03 08:57:33;;;;;;;42.10;34.50;;;;;;;25.20;59.57;99336.83;238221;1193;139167;-57
2022/08/03 09:02:45;;;;;;;19.20;13.60;;;;;;;25.29;59.23;99331.41;238241;1192;139662;-60
2022/08/03 09:07:48;;;;;;;12.50;11.20;;;;;;;25.37;58.92;99331.66;238392;1192;139544;-58
2022/08/03 09:12:53;;;;;;;14.90;9.20;;;;;;;25.40;58.43;99330.72;238254;1192;140246;-59
2022/08/03 09:17:59;;;;;;;10.10;8.70;;;;;;;25.49;58.42;99327.86;238135;1192;139906;-58
2022/08/03 09:23:07;;;;;;;10.30;9.30;;;;;;;25.59;57.80;99326.98;237856;1192;139859;-59
2022/08/03 09:28:34;;;;;;;10.60;9.60;;;;;;;25.61;57.52;99324.23;238230;1192;140420;-60
2022/08/03 09:34:00;;;;;;;14.00;9.60;;;;;;;25.83;57.69;99317.83;238193;1193;140037;-59
2022/08/03 09:39:11;;;;;;;11.10;9.60;;;;;;;26.05;57.91;99319.78;237861;1192;139920;-58
2022/08/03 09:44:14;;;;;;;12.60;9.80;;;;;;;26.23;57.71;99319.98;238233;1192;139714;-60
2022/08/03 09:49:27;;;;;;;11.80;10.50;;;;;;;26.41;57.14;99316.45;238379;1192;139403;-60
2022/08/03 09:54:31;;;;;;;13.90;10.40;;;;;;;26.57;56.71;99313.20;238269;1192;139352;-60
2022/08/03 09:59:34;;;;;;;9.90;8.90;;;;;;;26.51;56.01;99314.16;238167;1192;140460;-59
2022/08/03 10:04:47;;;;;;;11.00;9.20;;;;;;;26.30;55.68;99312.90;238261;1192;139124;-60
2022/08/03 10:09:58;;;;;;;10.90;9.80;;;;;;;26.09;55.59;99304.59;238269;1192;140426;-60
2022/08/03 10:15:21;;;;;;;16.90;9.00;;;;;;;25.96;55.70;99310.38;238248;1192;139346;-60
2022/08/03 10:20:50;;;;;;;185.70;136.80;;;;;;;26.07;56.14;99308.10;238242;1192;139250;-60
2022/08/03 10:26:00;;;;;;;27.10;20.00;;;;;;;26.21;55.97;99305.36;238348;1192;139493;-59
2022/08/03 10:31:06;;;;;;;10.50;9.30;;;;;;;26.35;55.84;99307.79;238202;1192;139746;-58
2022/08/03 10:36:12;;;;;;;9.60;8.60;;;;;;;26.49;55.58;99306.57;238128;1192;139287;-60
2022/08/03 10:41:18;;;;;;;15.60;8.40;;;;;;;26.54;54.99;99302.37;238252;1192;139403;-60
2022/08/03 10:46:22;;;;;;;16.10;8.10;;;;;;;26.50;54.59;99305.38;238222;1192;140497;-60
2022/08/03 10:51:30;;;;;;;16.30;8.60;;;;;;;26.46;54.25;99303.88;238139;1192;140068;-60
2022/08/03 11:01:56;;;;;;;13.80;10.50;;;;;;;26.69;54.60;99292.19;238414;1192;139167;-61
2022/08/03 11:07:24;;;;;;;17.40;8.60;;;;;;;26.58;54.05;99290.86;238227;1192;139518;-62
2022/08/03 11:12:31;;;;;;;9.70;7.10;;;;;;;26.45;53.62;99294.34;238113;1192;138951;-63
2022/08/03 11:17:37;;;;;;;10.60;6.30;;;;;;;26.48;53.80;99287.02;238205;1192;139882;-61
2022/08/03 11:23:00;;;;;;;11.80;7.20;;;;;;;26.82;53.95;99278.61;238420;1193;139377;-62
2022/08/03 11:28:28;;;;;;;12.50;6.60;;;;;;;27.21;53.39;99270.19;238400;1192;139824;-64
2022/08/03 11:33:32;;;;;;;10.00;6.00;;;;;;;27.53;53.04;99268.81;238444;1193;138983;-63
2022/08/03 11:39:13;;;;;;;7.70;6.10;;;;;;;27.86;52.68;99262.15;238253;1192;139867;-62
2022/08/03 11:44:40;;;;;;;9.20;6.20;;;;;;;28.12;51.71;99256.15;237955;1193;142182;-63
2022/08/03 11:49:50;;;;;;;11.60;6.20;;;;;;;28.08;50.82;99252.34;238229;1193;138509;-63
2022/08/03 11:54:54;;;;;;;8.10;5.50;;;;;;;27.97;50.35;99251.58;238417;1192;140643;-61
2022/08/03 11:59:59;;;;;;;9.00;6.20;;;;;;;27.85;50.20;99244.98;238460;1192;139723;-64
2022/08/03 12:05:02;;;;;;;38.00;26.40;;;;;;;27.90;50.40;99244.50;238159;1192;139305;-62
2022/08/03 12:10:11;;;;;;;11.80;6.30;;;;;;;28.01;50.08;99240.48;238230;1192;140186;-60
2022/08/03 12:15:13;;;;;;;8.80;5.40;;;;;;;28.31;49.96;99233.09;238304;1192;139573;-62
2022/08/03 12:20:26;;;;;;;8.60;5.20;;;;;;;28.64;49.41;99227.77;238273;1192;140178;-63
2022/08/03 12:25:38;;;;;;;11.50;6.30;;;;;;;28.76;49.05;99227.50;238407;1192;140563;-62
2022/08/03 12:30:42;;;;;;;11.80;6.30;;;;;;;29.15;49.01;99227.60;238243;1192;140392;-61
2022/08/03 12:36:07;;;;;;;8.70;6.80;;;;;;;29.40;48.15;99220.77;238268;1192;139120;-62
2022/08/03 12:41:12;;;;;;;44.10;37.30;;;;;;;29.38;47.79;99216.16;238190;1192;140380;-61
2022/08/03 12:46:17;;;;;;;8.50;6.80;;;;;;;29.55;47.70;99211.13;238228;1192;139978;-62
2022/08/03 12:51:19;;;;;;;;;;;;;;;29.49;46.71;99213.96;238032;1192;139382;-61
2022/08/03 12:56:23;;;;;;;10.70;7.10;;;;;;;29.18;46.29;99209.26;238274;1192;126400;-61
2022/08/03 13:01:35;;;;;;;10.60;6.70;;;;;;;28.94;46.37;99207.21;238333;1192;139458;-62
2022/08/03 13:06:38;;;;;;;10.00;6.50;;;;;;;28.85;46.45;99204.58;238293;1191;139422;-61
2022/08/03 13:11:41;;;;;;;9.00;6.10;;;;;;;28.67;46.29;99200.04;238304;1191;140753;-62
2022/08/03 13:17:05;;;;;;;7.00;5.80;;;;;;;28.90;46.76;99193.75;238314;1192;139673;-61
2022/08/03 13:22:23;;;;;;;32.20;25.50;;;;;;;29.36;46.74;99192.11;238107;1192;140046;-61
2022/08/03 13:27:27;;;;;;;7.80;7.00;;;;;;;29.83;46.17;99195.69;238241;1192;139919;-62
2022/08/03 13:32:51;;;;;;;7.40;5.70;;;;;;;30.24;45.57;99191.61;238268;1192;139278;-63
2022/08/03 13:37:53;;;;;;;10.60;5.30;;;;;;;30.59;45.10;99187.83;238464;1192;139312;-62
2022/08/03 13:42:57;;;;;;;5.00;3.90;;;;;;;30.89;44.41;99177.70;238145;1192;139773;-60
2022/08/03 13:48:00;;;;;;;7.30;4.50;;;;;;;31.10;43.16;99181.34;238212;1192;139321;-62
2022/08/03 13:53:03;;;;;;;6.10;4.20;;;;;;;31.25;42.49;99187.93;238250;1192;139878;-62
2022/08/03 13:58:08;;;;;;;7.80;4.50;;;;;;;31.49;42.59;99184.44;238321;1192;139307;-61
2022/08/03 14:03:11;;;;;;;10.10;7.00;;;;;;;31.72;42.05;99179.32;238222;1192;139691;-60
2022/08/03 14:08:17;;;;;;;6.70;5.10;;;;;;;31.79;41.16;99177.15;238238;1192;139433;-60
2022/08/03 14:13:20;;;;;;;6.10;4.20;;;;;;;31.82;40.94;99175.55;238248;1192;139402;-61
2022/08/03 14:18:23;;;;;;;5.10;4.30;;;;;;;31.92;40.64;99176.91;237993;1192;140550;-62
2022/08/03 14:23:38;;;;;;;4.80;4.20;;;;;;;31.91;40.19;99173.70;238221;1192;139968;-62
2022/08/03 14:28:41;;;;;;;6.10;4.80;;;;;;;31.92;39.98;99171.69;238194;1192;139796;-61
2022/08/03 14:33:44;;;;;;;5.50;4.30;;;;;;;31.89;39.95;99167.08;237997;1192;139728;-62
2022/08/03 14:38:47;;;;;;;13.40;5.60;;;;;;;31.73;39.66;99163.20;238352;1192;139595;-62
2022/08/03 14:43:50;;;;;;;4.90;4.40;;;;;;;31.57;39.55;99162.74;238216;1192;140643;-63
2022/08/03 14:49:04;;;;;;;5.60;4.50;;;;;;;31.42;39.54;99155.56;238144;1192;139705;-62
2022/08/03 14:54:29;;;;;;;6.10;4.70;;;;;;;31.21;39.35;99158.58;238190;1192;139027;-64
2022/08/03 14:59:32;;;;;;;5.20;4.70;;;;;;;30.95;39.40;99160.06;238208;1192;139863;-61
2022/08/03 15:04:55;;;;;;;6.30;4.60;;;;;;;30.66;39.39;99157.98;238345;1192;139187;-62
2022/08/03 15:09:58;;;;;;;11.20;4.80;;;;;;;30.40;39.37;99157.98;238071;1191;142197;-63
2022/08/03 15:15:04;;;;;;;5.50;4.90;;;;;;;30.17;39.61;99153.86;238062;1192;139064;-61
2022/08/03 15:20:08;;;;;;;6.80;4.40;;;;;;;29.96;39.46;99149.60;238367;1192;139987;-61
2022/08/03 15:25:31;;;;;;;52.00;43.30;;;;;;;29.75;39.75;99147.15;238151;1192;139239;-60
2022/08/03 15:30:54;;;;;;;6.70;5.50;;;;;;;29.56;39.88;99145.10;238174;1192;140734;-58
2022/08/03 15:35:59;;;;;;;8.20;4.90;;;;;;;29.42;40.00;99143.93;238079;1192;138943;-60
2022/08/03 15:41:02;;;;;;;8.50;4.80;;;;;;;29.35;39.79;99143.81;238160;1192;140943;-59
2022/08/03 15:46:05;;;;;;;5.20;4.30;;;;;;;29.28;39.57;99143.20;238241;1192;139362;-59
2022/08/03 15:51:28;;;;;;;5.80;4.90;;;;;;;29.23;39.39;99141.70;238298;1192;139251;-60
2022/08/03 15:56:31;;;;;;;40.40;31.80;;;;;;;29.19;39.56;99135.02;238244;1192;139469;-60
2022/08/03 16:01:34;;;;;;;9.20;5.50;;;;;;;29.12;39.75;99132.55;238308;1192;139580;-59
2022/08/03 16:06:37;;;;;;;7.90;6.30;;;;;;;29.06;39.80;99129.19;238157;1192;139330;-60
2022/08/03 16:11:40;;;;;;;5.60;4.70;;;;;;;29.00;39.95;99126.95;238036;1192;140649;-59
2022/08/03 16:16:43;;;;;;;5.50;5.00;;;;;;;28.93;39.83;99124.58;238155;1192;138866;-58
2022/08/03 16:21:48;;;;;;;7.80;5.70;;;;;;;28.88;39.94;99116.10;238134;1192;141072;-60
2022/08/03 16:26:51;;;;;;;9.20;6.80;;;;;;;28.82;40.42;99112.40;238210;1192;139315;-60
2022/08/03 16:31:54;;;;;;;7.00;6.40;;;;;;;28.74;40.65;99110.80;238243;1192;140322;-62
2022/08/03 16:36:58;;;;;;;7.80;5.50;;;;;;;28.64;40.70;99104.89;238120;1192;139098;-59
2022/08/03 16:42:21;;;;;;;7.80;5.20;;;;;;;28.50;40.76;99104.73;238152;1192;139215;-61
2022/08/03 16:47:24;;;;;;;10.90;5.50;;;;;;;28.38;40.80;99105.07;238118;1192;139633;-62
2022/08/03 16:52:27;;;;;;;6.40;5.50;;;;;;;28.30;40.85;99104.53;238050;1192;139554;-61
2022/08/03 16:57:30;;;;;;;12.60;6.30;;;;;;;28.20;41.16;99108.80;237880;1193;139981;-62
2022/08/03 17:02:55;;;;;;;8.10;6.20;;;;;;;28.10;41.12;99111.94;238063;1192;139822;-60
2022/08/03 17:08:00;;;;;;;8.30;5.90;;;;;;;27.99;41.29;99116.54;238361;1192;139612;-62
2022/08/03 17:13:12;;;;;;;63.70;55.20;;;;;;;27.93;41.36;99116.27;237741;1192;140726;-60
2022/08/03 17:18:28;;;;;;;14.80;13.20;;;;;;;27.88;41.43;99121.94;238175;1192;140651;-60
2022/08/03 17:23:52;;;;;;;7.00;6.30;;;;;;;27.81;41.76;99127.29;238186;1192;139378;-61
2022/08/03 17:29:03;;;;;;;7.70;6.60;;;;;;;27.73;41.81;99127.62;238233;1192;138986;-61
2022/08/03 17:34:15;;;;;;;8.50;5.40;;;;;;;27.63;42.12;99132.30;237686;1192;139061;-61
2022/08/03 17:39:20;;;;;;;7.30;5.00;;;;;;;27.54;42.58;99140.21;238081;1192;139311;-61
2022/08/03 17:44:44;;;;;;;9.20;5.50;;;;;;;27.43;42.92;99145.08;238109;1192;139264;-60
2022/08/03 17:49:48;;;;;;;8.90;5.70;;;;;;;27.36;43.25;99146.35;238193;1192;140011;-59
2022/08/03 17:55:06;;;;;;;71.20;57.30;;;;;;;27.29;43.49;99154.20;238134;1192;139202;-59
2022/08/03 18:06:06;;;;;;;9.30;6.50;;;;;;;27.25;43.98;99157.24;237867;1192;139005;-60
2022/08/03 18:11:20;;;;;;;9.10;7.10;;;;;;;27.18;44.27;99158.03;238148;1192;138489;-59
2022/08/03 18:16:30;;;;;;;11.30;7.20;;;;;;;27.09;44.38;99163.91;238193;1192;139248;-57
2022/08/03 18:21:33;;;;;;;338.50;300.90;;;;;;;26.99;44.74;99174.09;238000;1192;139884;-61
2022/08/03 18:26:58;;;;;;;20.80;18.60;;;;;;;26.96;45.17;99179.82;237913;1192;140418;-59
2022/08/03 18:32:06;;;;;;;15.50;9.70;;;;;;;26.88;45.25;99187.11;238176;1192;139554;-59
2022/08/03 18:37:17;;;;;;;14.90;8.90;;;;;;;26.77;45.37;99194.20;238194;1192;140083;-59
2022/08/03 18:42:26;;;;;;;13.40;8.40;;;;;;;26.67;45.68;99199.09;238125;1192;139743;-59
2022/08/03 18:47:41;;;;;;;16.30;9.30;;;;;;;26.57;45.79;99203.56;238180;1192;139977;-58
2022/08/03 18:53:14;;;;;;;418.40;368.20;;;;;;;26.47;46.22;99212.98;238172;1192;139588;-59
2022/08/03 18:58:39;;;;;;;34.10;26.20;;;;;;;26.38;46.55;99216.48;238134;1192;140568;-58
2022/08/03 19:03:47;;;;;;;15.60;10.50;;;;;;;26.26;47.03;99222.27;238034;1192;142093;-58
2022/08/03 19:09:03;;;;;;;19.40;14.80;;;;;;;26.18;47.27;99219.09;238131;1192;141116;-56
2022/08/03 19:14:09;;;;;;;10.70;8.60;;;;;;;26.11;47.48;99219.76;238361;1192;139586;-56
2022/08/03 19:19:16;;;;;;;20.70;16.50;;;;;;;26.00;47.70;99224.03;238101;1192;139514;-59
2022/08/03 19:24:23;;;;;;;225.00;185.50;;;;;;;25.89;48.13;99229.83;237921;1192;139739;-58
2022/08/03 19:29:29;;;;;;;16.60;14.50;;;;;;;25.78;48.36;99233.91;238111;1192;140303;-56
2022/08/03 19:34:53;;;;;;;13.40;8.90;;;;;;;25.66;48.50;99231.70;238308;1192;139453;-56
2022/08/03 19:39:57;;;;;;;10.20;8.10;;;;;;;25.56;48.91;99234.92;238103;1193;140516;-58
2022/08/03 19:45:06;;;;;;;12.00;8.00;;;;;;;25.45;49.25;99238.46;238116;1192;139567;-57
2022/08/03 19:50:18;;;;;;;21.70;16.20;;;;;;;25.35;49.44;99242.76;238327;1192;139271;-59
2022/08/03 19:55:25;;;;;;;15.40;9.50;;;;;;;25.25;49.69;99245.75;238179;1192;139887;-58
2022/08/03 20:00:36;;;;;;;11.90;8.40;;;;;;;25.16;49.99;99244.98;238085;1192;139909;-59
2022/08/03 20:05:40;;;;;;;14.00;8.70;;;;;;;25.06;50.14;99242.75;237991;1193;139357;-59
2022/08/03 20:10:54;;;;;;;211.70;189.40;;;;;;;24.91;50.47;99245.36;238242;1192;139028;-59
2022/08/03 20:15:57;;;;;;;16.20;13.60;;;;;;;24.84;50.73;99245.25;238322;1192;140107;-62
2022/08/03 20:21:11;;;;;;;16.20;11.00;;;;;;;24.74;50.91;99241.40;238311;1192;139643;-60
2022/08/03 20:26:19;;;;;;;14.70;9.60;;;;;;;24.63;50.95;99234.17;238350;1192;140379;-61
2022/08/03 20:31:24;;;;;;;12.10;9.70;;;;;;;24.54;51.19;99231.61;238295;1192;139965;-60
2022/08/03 20:36:37;;;;;;;13.30;9.80;;;;;;;24.44;51.38;99226.11;238331;1192;139157;-62
2022/08/03 20:41:41;;;;;;;12.70;9.20;;;;;;;24.31;51.64;99220.27;238347;1192;139475;-61
2022/08/03 20:46:44;;;;;;;14.10;10.30;;;;;;;24.20;51.81;99224.83;238490;1192;139527;-61
2022/08/03 20:52:02;;;;;;;11.70;10.40;;;;;;;24.10;52.07;99223.88;238216;1192;139660;-61
2022/08/03 20:57:07;;;;;;;13.20;9.50;;;;;;;24.01;52.28;99229.48;238321;1192;139818;-60
2022/08/03 21:02:11;;;;;;;12.90;9.90;;;;;;;23.93;52.45;99237.14;238407;1192;140113;-59
2022/08/03 21:07:22;;;;;;;14.20;9.40;;;;;;;23.81;52.63;99238.23;238454;1192;139415;-59
2022/08/03 21:12:39;;;;;;;15.90;10.30;;;;;;;23.71;52.87;99239.94;238373;1192;139927;-57
2022/08/03 21:17:46;;;;;;;15.30;9.70;;;;;;;23.61;53.09;99237.61;238402;1192;139314;-60
2022/08/03 21:22:52;;;;;;;11.30;10.00;;;;;;;23.52;53.31;99240.21;238336;1193;140029;-59
2022/08/03 21:27:56;;;;;;;11.20;9.60;;;;;;;23.44;53.50;99248.24;238598;1192;140109;-59
2022/08/03 21:32:59;;;;;;;11.80;9.80;;;;;;;23.35;53.73;99253.02;238232;1192;138716;-58
2022/08/03 21:38:18;;;;;;;14.20;8.60;;;;;;;23.26;53.90;99250.95;238447;1192;139483;-57
2022/08/03 21:43:21;;;;;;;12.30;9.40;;;;;;;23.21;54.15;99255.70;238397;1192;140571;-58
2022/08/03 21:48:26;;;;;;;13.50;9.60;;;;;;;23.20;54.33;99257.84;238324;1192;140095;-60
2022/08/03 21:53:31;;;;;;;14.20;9.90;;;;;;;23.19;54.43;99260.66;238404;1192;139511;-58
2022/08/03 21:59:03;;;;;;;13.00;9.80;;;;;;;23.15;54.56;99264.33;238293;1192;139375;-59
2022/08/03 22:04:06;;;;;;;16.00;10.30;;;;;;;23.09;54.66;99263.70;238311;1192;139665;-54
2022/08/03 22:09:29;;;;;;;12.70;10.00;;;;;;;23.01;54.89;99260.94;238194;1192;140327;-56
2022/08/03 22:14:32;;;;;;;12.70;10.30;;;;;;;22.94;54.98;99257.91;238225;1192;139653;-62
2022/08/03 22:19:35;;;;;;;13.20;9.90;;;;;;;22.89;55.17;99254.16;238464;1192;139878;-57
2022/08/03 22:24:43;;;;;;;12.60;9.50;;;;;;;22.82;55.22;99254.52;238262;1192;139702;-61
2022/08/03 22:29:48;;;;;;;12.10;9.30;;;;;;;22.75;55.35;99256.37;238432;1192;138974;-59
2022/08/03 22:34:51;;;;;;;12.00;9.60;;;;;;;22.67;55.53;99262.13;238247;1192;139359;-59
2022/08/03 22:39:55;;;;;;;12.70;8.80;;;;;;;22.59;55.72;99260.19;238153;1192;140274;-59
2022/08/03 22:45:01;;;;;;;12.00;9.00;;;;;;;22.52;55.74;99265.80;237832;1192;140563;-58
2022/08/03 22:50:06;;;;;;;13.20;9.20;;;;;;;22.49;55.99;99259.17;238184;1192;142439;-58
2022/08/03 22:55:30;;;;;;;15.70;9.60;;;;;;;22.48;56.09;99262.46;238485;1192;139236;-59
2022/08/03 23:00:33;;;;;;;13.10;9.10;;;;;;;22.44;56.17;99262.48;238314;1192;139267;-57
2022/08/03 23:05:36;;;;;;;11.30;9.10;;;;;;;22.39;56.09;99261.16;238316;1192;142327;-58
2022/08/03 23:11:04;;;;;;;12.00;8.80;;;;;;;22.32;56.27;99257.73;238356;1192;139135;-57
2022/08/03 23:16:08;;;;;;;11.40;9.20;;;;;;;22.25;56.34;99254.90;238328;1192;139420;-58
2022/08/03 23:21:12;;;;;;;14.00;8.20;;;;;;;22.19;56.49;99254.52;238269;1192;139092;-56
2022/08/03 23:26:17;;;;;;;11.70;9.30;;;;;;;22.10;56.57;99252.16;238463;1192;139656;-56
2022/08/03 23:31:20;;;;;;;12.20;9.10;;;;;;;22.03;56.78;99251.55;238375;1192;139575;-58